sensor_id;sensor_type;location;lat;lon;timestamp;pressure;altitude;pressure_sealevel;temperature;humidity
60974;BME280;46846;51.528;5.076;2023-02-28T00:01:31;102573.69;;;1.36;72.20
60974;BME280;46846;51.528;5.076;2023-02-28T00:03:57;102576.25;;;1.34;72.46
60974;BME280;46846;51.528;5.076;2023-02-28T00:06:23;102574.34;;;1.30;72.59
60974;BME280;46846;51.528;5.076;2023-02-28T00:08:49;102574.41;;;1.32;72.47
60974;BME280;46846;51.528;5.076;2023-02-28T00:11:15;102570.91;;;1.31;72.81
60974;BME280;46846;51.528;5.076;2023-02-28T00:13:43;102573.63;;;1.34;72.47
60974;BME280;46846;51.528;5.076;2023-02-28T00:16:13;102577.09;;;1.33;72.33
60974;BME280;46846;51.528;5.076;2023-02-28T00:18:40;102573.34;;;1.27;72.79
60974;BME280;46846;51.528;5.076;2023-02-28T00:21:06;102561.00;;;1.22;73.08
60974;BME280;46846;51.528;5.076;2023-02-28T00:23:32;102561.06;;;1.24;72.83
60974;BME280;46846;51.528;5.076;2023-02-28T00:25:57;102567.19;;;1.25;73.07
60974;BME280;46846;51.528;5.076;2023-02-28T00:28:23;102567.19;;;1.25;72.82
60974;BME280;46846;51.528;5.076;2023-02-28T00:30:49;102569.81;;;1.25;72.78
60974;BME280;46846;51.528;5.076;2023-02-28T00:33:14;102564.34;;;1.18;72.97
60974;BME280;46846;51.528;5.076;2023-02-28T00:35:40;102566.25;;;1.22;72.75
60974;BME280;46846;51.528;5.076;2023-02-28T00:38:05;102563.56;;;1.21;72.96
60974;BME280;46846;51.528;5.076;2023-02-28T00:40:31;102564.47;;;1.21;72.84
60974;BME280;46846;51.528;5.076;2023-02-28T00:42:56;102560.72;;;1.13;73.36
60974;BME280;46846;51.528;5.076;2023-02-28T00:45:22;102562.53;;;1.16;73.04
60974;BME280;46846;51.528;5.076;2023-02-28T00:47:47;102566.13;;;1.19;73.11
60974;BME280;46846;51.528;5.076;2023-02-28T00:50:17;102560.88;;;1.19;72.87
60974;BME280;46846;51.528;5.076;2023-02-28T00:52:42;102555.66;;;1.19;72.78
60974;BME280;46846;51.528;5.076;2023-02-28T00:55:08;102560.81;;;1.16;73.21
60974;BME280;46846;51.528;5.076;2023-02-28T00:57:33;102561.66;;;1.15;73.17
60974;BME280;46846;51.528;5.076;2023-02-28T00:59:59;102557.25;;;1.14;72.71
60974;BME280;46846;51.528;5.076;2023-02-28T01:02:24;102557.28;;;1.16;72.67
60974;BME280;46846;51.528;5.076;2023-02-28T01:04:49;102558.97;;;1.14;72.77
60974;BME280;46846;51.528;5.076;2023-02-28T01:07:15;102564.22;;;1.14;73.22
60974;BME280;46846;51.528;5.076;2023-02-28T01:09:41;102565.84;;;1.10;73.25
60974;BME280;46846;51.528;5.076;2023-02-28T01:12:08;102579.00;;;1.12;72.96
60974;BME280;46846;51.528;5.076;2023-02-28T01:14:34;102572.06;;;1.14;72.88
60974;BME280;46846;51.528;5.076;2023-02-28T01:16:59;102572.06;;;1.14;72.86
60974;BME280;46846;51.528;5.076;2023-02-28T01:19:25;102577.16;;;1.09;73.16
60974;BME280;46846;51.528;5.076;2023-02-28T01:21:50;102578.22;;;1.14;72.92
60974;BME280;46846;51.528;5.076;2023-02-28T01:24:16;102579.00;;;1.12;72.81
60974;BME280;46846;51.528;5.076;2023-02-28T01:26:41;102582.34;;;1.07;72.71
60974;BME280;46846;51.528;5.076;2023-02-28T01:29:06;102579.72;;;1.06;72.85
60974;BME280;46846;51.528;5.076;2023-02-28T01:31:32;102580.56;;;1.06;72.64
60974;BME280;46846;51.528;5.076;2023-02-28T01:33:57;102573.63;;;1.07;73.04
60974;BME280;46846;51.528;5.076;2023-02-28T01:36:24;102577.94;;;1.05;73.08
60974;BME280;46846;51.528;5.076;2023-02-28T01:38:50;102573.63;;;1.07;73.28
60974;BME280;46846;51.528;5.076;2023-02-28T01:41:27;102582.25;;;1.04;73.00
60974;BME280;46846;51.528;5.076;2023-02-28T01:44:06;102577.09;;;1.06;72.68
60974;BME280;46846;51.528;5.076;2023-02-28T01:46:35;102577.88;;;1.03;73.29
60974;BME280;46846;51.528;5.076;2023-02-28T01:49:05;102575.25;;;1.03;72.79
60974;BME280;46846;51.528;5.076;2023-02-28T01:51:37;102576.97;;;1.03;73.13
60974;BME280;46846;51.528;5.076;2023-02-28T01:54:11;102576.88;;;1.00;72.96
60974;BME280;46846;51.528;5.076;2023-02-28T01:56:44;102573.41;;;1.01;73.19
60974;BME280;46846;51.528;5.076;2023-02-28T01:59:14;102567.31;;;1.02;72.97
60974;BME280;46846;51.528;5.076;2023-02-28T02:01:44;102572.56;;;1.02;72.85
60974;BME280;46846;51.528;5.076;2023-02-28T02:04:09;102560.31;;;1.01;72.64
60974;BME280;46846;51.528;5.076;2023-02-28T02:06:41;102558.53;;;1.00;72.72
60974;BME280;46846;51.528;5.076;2023-02-28T02:09:07;102553.34;;;1.01;73.10
60974;BME280;46846;51.528;5.076;2023-02-28T02:11:33;102553.28;;;1.00;72.87
60974;BME280;46846;51.528;5.076;2023-02-28T02:22:17;102559.31;;;0.97;73.08
60974;BME280;46846;51.528;5.076;2023-02-28T02:25:01;102550.53;;;0.97;72.77
60974;BME280;46846;51.528;5.076;2023-02-28T02:37:59;102545.28;;;0.97;72.83
60974;BME280;46846;51.528;5.076;2023-02-28T02:40:40;102542.59;;;0.93;72.87
60974;BME280;46846;51.528;5.076;2023-02-28T02:43:17;102545.28;;;0.97;72.69
60974;BME280;46846;51.528;5.076;2023-02-28T02:45:55;102544.31;;;0.93;73.00
60974;BME280;46846;51.528;5.076;2023-02-28T02:48:26;102536.50;;;0.94;73.02
60974;BME280;46846;51.528;5.076;2023-02-28T02:50:55;102546.97;;;0.94;73.11
60974;BME280;46846;51.528;5.076;2023-02-28T02:53:28;102543.50;;;0.94;73.06
60974;BME280;46846;51.528;5.076;2023-02-28T02:55:56;102544.44;;;0.96;73.15
60974;BME280;46846;51.528;5.076;2023-02-28T02:58:27;102544.00;;;0.84;73.24
60974;BME280;46846;51.528;5.076;2023-02-28T03:00:57;102545.06;;;0.89;73.09
60974;BME280;46846;51.528;5.076;2023-02-28T03:03:25;102559.94;;;0.90;73.14
60974;BME280;46846;51.528;5.076;2023-02-28T03:05:59;102540.69;;;0.89;72.75
60974;BME280;46846;51.528;5.076;2023-02-28T03:08:26;102544.28;;;0.91;73.31
60974;BME280;46846;51.528;5.076;2023-02-28T03:10:56;102549.53;;;0.91;72.89
60974;BME280;46846;51.528;5.076;2023-02-28T03:22:03;102539.13;;;0.94;72.47
60974;BME280;46846;51.528;5.076;2023-02-28T03:27:30;102541.69;;;0.93;72.61
60974;BME280;46846;51.528;5.076;2023-02-28T03:35:23;102540.81;;;0.92;72.50
60974;BME280;46846;51.528;5.076;2023-02-28T03:37:53;102534.66;;;0.92;72.77
60974;BME280;46846;51.528;5.076;2023-02-28T03:40:25;102533.00;;;0.94;72.56
60974;BME280;46846;51.528;5.076;2023-02-28T03:42:57;102542.59;;;0.93;72.19
60974;BME280;46846;51.528;5.076;2023-02-28T03:45:28;102544.38;;;0.94;72.36
60974;BME280;46846;51.528;5.076;2023-02-28T03:48:17;102540.81;;;0.92;72.47
60974;BME280;46846;51.528;5.076;2023-02-28T03:50:48;102538.91;;;0.88;72.61
60974;BME280;46846;51.528;5.076;2023-02-28T03:53:30;102540.81;;;0.92;72.60
60974;BME280;46846;51.528;5.076;2023-02-28T04:01:47;102554.63;;;0.88;72.07
60974;BME280;46846;51.528;5.076;2023-02-28T04:04:14;102545.94;;;0.89;71.94
60974;BME280;46846;51.528;5.076;2023-02-28T04:06:41;102561.34;;;0.80;72.76
60974;BME280;46846;51.528;5.076;2023-02-28T04:09:08;102556.41;;;0.89;72.47
60974;BME280;46846;51.528;5.076;2023-02-28T04:11:37;102548.31;;;0.81;72.73
60974;BME280;46846;51.528;5.076;2023-02-28T04:14:04;102555.41;;;0.86;72.55
60974;BME280;46846;51.528;5.076;2023-02-28T04:16:31;102550.09;;;0.82;72.94
60974;BME280;46846;51.528;5.076;2023-02-28T04:18:56;102551.88;;;0.84;72.70
60974;BME280;46846;51.528;5.076;2023-02-28T04:21:29;102551.09;;;0.86;72.51
60974;BME280;46846;51.528;5.076;2023-02-28T04:23:55;102552.66;;;0.81;73.02
60974;BME280;46846;51.528;5.076;2023-02-28T04:26:20;102544.78;;;0.81;72.48
60974;BME280;46846;51.528;5.076;2023-02-28T04:28:46;102552.72;;;0.82;72.86
60974;BME280;46846;51.528;5.076;2023-02-28T04:31:11;102556.19;;;0.81;72.67
60974;BME280;46846;51.528;5.076;2023-02-28T04:33:37;102554.53;;;0.85;72.41
60974;BME280;46846;51.528;5.076;2023-02-28T04:36:05;102552.72;;;0.82;72.28
60974;BME280;46846;51.528;5.076;2023-02-28T04:38:37;102557.09;;;0.84;72.47
60974;BME280;46846;51.528;5.076;2023-02-28T04:41:04;102556.19;;;0.81;72.26
60974;BME280;46846;51.528;5.076;2023-02-28T04:43:30;102564.88;;;0.80;72.81
60974;BME280;46846;51.528;5.076;2023-02-28T04:45:58;102554.44;;;0.82;72.61
60974;BME280;46846;51.528;5.076;2023-02-28T04:48:27;102564.19;;;0.86;72.38
60974;BME280;46846;51.528;5.076;2023-02-28T04:50:53;102567.75;;;0.88;72.18
60974;BME280;46846;51.528;5.076;2023-02-28T04:53:19;102572.06;;;0.86;72.28
60974;BME280;46846;51.528;5.076;2023-02-28T04:55:44;102570.38;;;0.88;72.85
60974;BME280;46846;51.528;5.076;2023-02-28T04:58:11;102578.22;;;0.88;72.34
60974;BME280;46846;51.528;5.076;2023-02-28T05:00:36;102578.28;;;0.90;72.60
60974;BME280;46846;51.528;5.076;2023-02-28T05:03:02;102579.06;;;0.87;72.36
60974;BME280;46846;51.528;5.076;2023-02-28T05:05:27;102571.97;;;0.83;72.76
60974;BME280;46846;51.528;5.076;2023-02-28T05:07:53;102577.38;;;0.89;72.58
60974;BME280;46846;51.528;5.076;2023-02-28T05:10:21;102581.75;;;0.89;72.43
60974;BME280;46846;51.528;5.076;2023-02-28T05:12:46;102571.16;;;0.86;72.74
60974;BME280;46846;51.528;5.076;2023-02-28T05:15:14;102573.94;;;0.90;72.58
60974;BME280;46846;51.528;5.076;2023-02-28T05:17:39;102574.75;;;0.89;72.40
60974;BME280;46846;51.528;5.076;2023-02-28T05:20:06;102587.78;;;0.86;72.30
60974;BME280;46846;51.528;5.076;2023-02-28T05:22:31;102579.91;;;0.86;72.51
60974;BME280;46846;51.528;5.076;2023-02-28T05:24:57;102583.38;;;0.85;72.99
60974;BME280;46846;51.528;5.076;2023-02-28T05:27:23;102587.56;;;0.80;72.88
60974;BME280;46846;51.528;5.076;2023-02-28T05:29:48;102593.75;;;0.82;72.79
60974;BME280;46846;51.528;5.076;2023-02-28T05:32:14;102586.06;;;0.87;72.42
60974;BME280;46846;51.528;5.076;2023-02-28T05:34:41;102586.00;;;0.85;72.75
60974;BME280;46846;51.528;5.076;2023-02-28T05:37:10;102589.41;;;0.82;72.75
60974;BME280;46846;51.528;5.076;2023-02-28T05:39:36;102591.31;;;0.87;72.64
60974;BME280;46846;51.528;5.076;2023-02-28T05:42:02;102580.81;;;0.87;73.09
60974;BME280;46846;51.528;5.076;2023-02-28T05:44:27;102592.19;;;0.87;72.58
60974;BME280;46846;51.528;5.076;2023-02-28T05:46:52;102588.63;;;0.85;72.72
60974;BME280;46846;51.528;5.076;2023-02-28T05:49:18;102584.06;;;0.79;72.61
60974;BME280;46846;51.528;5.076;2023-02-28T05:51:43;102587.69;;;0.83;72.66
60974;BME280;46846;51.528;5.076;2023-02-28T05:54:09;102579.75;;;0.81;72.39
60974;BME280;46846;51.528;5.076;2023-02-28T05:56:34;102585.00;;;0.81;72.76
60974;BME280;46846;51.528;5.076;2023-02-28T05:59:00;102579.91;;;0.86;72.63
60974;BME280;46846;51.528;5.076;2023-02-28T06:01:37;102580.81;;;0.87;72.25
60974;BME280;46846;51.528;5.076;2023-02-28T06:04:05;102586.09;;;0.88;72.48
60974;BME280;46846;51.528;5.076;2023-02-28T06:06:30;102580.00;;;0.89;72.71
60974;BME280;46846;51.528;5.076;2023-02-28T06:08:57;102572.13;;;0.88;72.60
60974;BME280;46846;51.528;5.076;2023-02-28T06:11:22;102567.72;;;0.87;72.61
60974;BME280;46846;51.528;5.076;2023-02-28T06:13:54;102577.38;;;0.89;72.41
60974;BME280;46846;51.528;5.076;2023-02-28T06:16:20;102576.56;;;0.90;72.53
60974;BME280;46846;51.528;5.076;2023-02-28T06:18:45;102580.06;;;0.91;72.31
60974;BME280;46846;51.528;5.076;2023-02-28T06:21:12;102589.69;;;0.90;72.73
60974;BME280;46846;51.528;5.076;2023-02-28T06:23:37;102597.53;;;0.90;72.71
60974;BME280;46846;51.528;5.076;2023-02-28T06:26:02;102580.13;;;0.92;72.46
60974;BME280;46846;51.528;5.076;2023-02-28T06:28:28;102576.59;;;0.92;71.70
60974;BME280;46846;51.528;5.076;2023-02-28T06:30:56;102570.44;;;0.90;72.35
60974;BME280;46846;51.528;5.076;2023-02-28T06:33:21;102572.19;;;0.91;72.16
60974;BME280;46846;51.528;5.076;2023-02-28T06:35:50;102591.34;;;0.88;72.27
60974;BME280;46846;51.528;5.076;2023-02-28T06:38:15;102604.50;;;0.90;72.17
60974;BME280;46846;51.528;5.076;2023-02-28T06:40:41;102598.47;;;0.92;72.34
60974;BME280;46846;51.528;5.076;2023-02-28T06:43:06;102601.94;;;0.91;72.47
60974;BME280;46846;51.528;5.076;2023-02-28T06:45:32;102587.94;;;0.91;72.16
60974;BME280;46846;51.528;5.076;2023-02-28T06:47:57;102599.34;;;0.93;72.09
60974;BME280;46846;51.528;5.076;2023-02-28T06:50:23;102587.22;;;0.95;72.25
60974;BME280;46846;51.528;5.076;2023-02-28T06:52:49;102586.31;;;0.94;72.22
60974;BME280;46846;51.528;5.076;2023-02-28T06:55:19;102579.28;;;0.93;72.03
60974;BME280;46846;51.528;5.076;2023-02-28T06:57:44;102595.00;;;0.93;72.11
60974;BME280;46846;51.528;5.076;2023-02-28T07:00:10;102615.06;;;0.93;72.33
60974;BME280;46846;51.528;5.076;2023-02-28T07:02:36;102616.81;;;0.92;72.26
60974;BME280;46846;51.528;5.076;2023-02-28T07:05:03;102599.25;;;0.90;72.71
60974;BME280;46846;51.528;5.076;2023-02-28T07:07:29;102610.66;;;0.90;72.06
60974;BME280;46846;51.528;5.076;2023-02-28T07:09:54;102604.41;;;0.87;71.95
60974;BME280;46846;51.528;5.076;2023-02-28T07:12:19;102604.28;;;0.84;72.46
60974;BME280;46846;51.528;5.076;2023-02-28T07:14:45;102632.41;;;0.88;72.79
60974;BME280;46846;51.528;5.076;2023-02-28T07:17:11;102600.09;;;0.89;72.24
60974;BME280;46846;51.528;5.076;2023-02-28T07:19:38;102588.88;;;0.93;71.53
60974;BME280;46846;51.528;5.076;2023-02-28T07:22:03;102617.75;;;0.68;73.07
60974;BME280;46846;51.528;5.076;2023-02-28T07:24:29;102622.25;;;0.73;72.93
60974;BME280;46846;51.528;5.076;2023-02-28T07:26:55;102619.91;;;0.80;68.59
60974;BME280;46846;51.528;5.076;2023-02-28T07:29:20;102618.38;;;0.87;71.12
60974;BME280;46846;51.528;5.076;2023-02-28T07:31:45;102621.00;;;0.87;71.04
60974;BME280;46846;51.528;5.076;2023-02-28T07:34:15;102624.47;;;0.86;71.75
60974;BME280;46846;51.528;5.076;2023-02-28T07:36:41;102622.91;;;0.91;68.79
60974;BME280;46846;51.528;5.076;2023-02-28T07:39:06;102625.41;;;0.88;70.36
60974;BME280;46846;51.528;5.076;2023-02-28T07:41:34;102623.78;;;0.92;68.26
60974;BME280;46846;51.528;5.076;2023-02-28T07:44:02;102619.28;;;0.88;68.33
60974;BME280;46846;51.528;5.076;2023-02-28T07:46:28;102617.50;;;0.87;69.34
60974;BME280;46846;51.528;5.076;2023-02-28T07:49:00;102624.63;;;0.91;67.69
60974;BME280;46846;51.528;5.076;2023-02-28T07:51:25;102627.31;;;0.92;65.29
60974;BME280;46846;51.528;5.076;2023-02-28T07:53:51;102624.38;;;0.83;65.89
60974;BME280;46846;51.528;5.076;2023-02-28T07:56:16;102626.81;;;0.78;68.25
60974;BME280;46846;51.528;5.076;2023-02-28T07:58:42;102626.16;;;0.84;63.52
60974;BME280;46846;51.528;5.076;2023-02-28T08:01:09;102630.34;;;0.79;67.79
60974;BME280;46846;51.528;5.076;2023-02-28T08:03:35;102634.84;;;0.83;67.50
60974;BME280;46846;51.528;5.076;2023-02-28T08:06:02;102634.00;;;0.84;62.68
60974;BME280;46846;51.528;5.076;2023-02-28T08:08:28;102633.66;;;0.75;68.92
60974;BME280;46846;51.528;5.076;2023-02-28T08:11:01;102643.50;;;0.80;67.20
60974;BME280;46846;51.528;5.076;2023-02-28T08:13:28;102640.09;;;0.83;64.58
60974;BME280;46846;51.528;5.076;2023-02-28T08:15:54;102632.94;;;0.79;68.27
60974;BME280;46846;51.528;5.076;2023-02-28T08:18:20;102639.28;;;0.60;70.25
60974;BME280;46846;51.528;5.076;2023-02-28T08:20:46;102633.63;;;0.73;64.60
60974;BME280;46846;51.528;5.076;2023-02-28T08:23:12;102630.63;;;0.62;69.01
60974;BME280;46846;51.528;5.076;2023-02-28T08:25:37;102637.03;;;0.71;68.21
60974;BME280;46846;51.528;5.076;2023-02-28T08:28:02;102631.94;;;0.75;66.50
60974;BME280;46846;51.528;5.076;2023-02-28T08:30:28;102641.28;;;0.67;69.36
60974;BME280;46846;51.528;5.076;2023-02-28T08:32:53;102635.03;;;0.63;66.49
60974;BME280;46846;51.528;5.076;2023-02-28T08:35:20;102630.47;;;0.58;67.73
60974;BME280;46846;51.528;5.076;2023-02-28T08:37:50;102625.66;;;0.70;63.09
60974;BME280;46846;51.528;5.076;2023-02-28T08:40:16;102629.94;;;0.68;68.37
60974;BME280;46846;51.528;5.076;2023-02-28T08:42:44;102628.63;;;0.55;69.72
60974;BME280;46846;51.528;5.076;2023-02-28T08:45:11;102632.50;;;0.66;66.07
60974;BME280;46846;51.528;5.076;2023-02-28T08:47:36;102626.84;;;0.54;70.80
60974;BME280;46846;51.528;5.076;2023-02-28T08:50:01;102626.09;;;0.58;69.92
60974;BME280;46846;51.528;5.076;2023-02-28T08:52:27;102629.88;;;0.66;63.16
60974;BME280;46846;51.528;5.076;2023-02-28T08:54:52;102622.47;;;0.54;70.17
60974;BME280;46846;51.528;5.076;2023-02-28T08:57:17;102627.16;;;0.63;70.00
60974;BME280;46846;51.528;5.076;2023-02-28T08:59:43;102622.38;;;0.76;64.37
60974;BME280;46846;51.528;5.076;2023-02-28T09:02:12;102624.38;;;0.83;65.28
60974;BME280;46846;51.528;5.076;2023-02-28T09:04:37;102628.25;;;0.70;70.20
60974;BME280;46846;51.528;5.076;2023-02-28T09:07:03;102624.22;;;0.54;70.79
60974;BME280;46846;51.528;5.076;2023-02-28T09:09:28;102636.31;;;0.50;71.49
60974;BME280;46846;51.528;5.076;2023-02-28T09:11:56;102637.09;;;0.72;61.95
60974;BME280;46846;51.528;5.076;2023-02-28T09:14:21;102633.63;;;0.49;72.19
60974;BME280;46846;51.528;5.076;2023-02-28T09:16:47;102641.59;;;0.28;72.69
60974;BME280;46846;51.528;5.076;2023-02-28T09:19:13;102646.06;;;0.30;71.98
60974;BME280;46846;51.528;5.076;2023-02-28T09:21:38;102628.16;;;0.43;71.42
60974;BME280;46846;51.528;5.076;2023-02-28T09:24:04;102626.47;;;0.43;68.12
60974;BME280;46846;51.528;5.076;2023-02-28T09:26:29;102646.16;;;0.33;61.58
60974;BME280;46846;51.528;5.076;2023-02-28T09:28:54;102632.97;;;0.30;69.74
60974;BME280;46846;51.528;5.076;2023-02-28T09:31:25;102634.84;;;0.34;70.08
60974;BME280;46846;51.528;5.076;2023-02-28T09:33:53;102635.09;;;0.40;69.65
60974;BME280;46846;51.528;5.076;2023-02-28T09:36:20;102641.00;;;0.35;71.21
60974;BME280;46846;51.528;5.076;2023-02-28T09:38:46;102645.84;;;0.24;71.06
60974;BME280;46846;51.528;5.076;2023-02-28T09:41:23;102647.09;;;0.35;67.98
60974;BME280;46846;51.528;5.076;2023-02-28T09:43:55;102629.31;;;0.49;67.72
60974;BME280;46846;51.528;5.076;2023-02-28T09:48:52;102635.88;;;0.62;55.86
60974;BME280;46846;51.528;5.076;2023-02-28T09:51:30;102636.81;;;0.64;62.43
60974;BME280;46846;51.528;5.076;2023-02-28T09:53:58;102629.25;;;0.72;54.67
60974;BME280;46846;51.528;5.076;2023-02-28T09:59:01;102634.94;;;0.60;60.92
60974;BME280;46846;51.528;5.076;2023-02-28T10:01:29;102629.72;;;0.62;65.26
60974;BME280;46846;51.528;5.076;2023-02-28T10:04:08;102627.56;;;0.74;62.90
60974;BME280;46846;51.528;5.076;2023-02-28T10:06:44;102633.63;;;0.73;59.16
60974;BME280;46846;51.528;5.076;2023-02-28T10:09:17;102633.66;;;0.75;64.79
60974;BME280;46846;51.528;5.076;2023-02-28T10:11:46;102621.78;;;0.85;54.62
60974;BME280;46846;51.528;5.076;2023-02-28T10:14:16;102633.66;;;0.75;54.16
60974;BME280;46846;51.528;5.076;2023-02-28T10:16:57;102620.31;;;0.67;64.98
60974;BME280;46846;51.528;5.076;2023-02-28T10:19:49;102626.25;;;0.63;61.83
60974;BME280;46846;51.528;5.076;2023-02-28T10:22:30;102630.31;;;0.53;63.49
60974;BME280;46846;51.528;5.076;2023-02-28T10:24:58;102626.09;;;0.58;56.54
60974;BME280;46846;51.528;5.076;2023-02-28T10:27:29;102611.34;;;0.60;59.45
60974;BME280;46846;51.528;5.076;2023-02-28T10:29:57;102609.50;;;0.58;50.34
60974;BME280;46846;51.528;5.076;2023-02-28T10:32:29;102607.50;;;0.50;60.17
60974;BME280;46846;51.528;5.076;2023-02-28T10:37:27;102608.38;;;0.51;64.31
60974;BME280;46846;51.528;5.076;2023-02-28T10:39:52;102606.44;;;0.45;67.60
60974;BME280;46846;51.528;5.076;2023-02-28T10:42:22;102604.88;;;0.50;66.52
60974;BME280;46846;51.528;5.076;2023-02-28T10:47:30;102602.50;;;0.32;70.35
60974;BME280;46846;51.528;5.076;2023-02-28T10:49:55;102607.16;;;0.41;69.88
60974;BME280;46846;51.528;5.076;2023-02-28T10:52:39;102589.81;;;0.45;70.61
60974;BME280;46846;51.528;5.076;2023-02-28T10:55:23;102595.13;;;0.46;71.30
60974;BME280;46846;51.528;5.076;2023-02-28T10:57:50;102592.50;;;0.46;69.79
60974;BME280;46846;51.528;5.076;2023-02-28T11:00:21;102595.66;;;0.37;69.40
60974;BME280;46846;51.528;5.076;2023-02-28T11:02:48;102602.56;;;0.34;69.91
60974;BME280;46846;51.528;5.076;2023-02-28T11:05:34;102589.16;;;0.50;64.58
60974;BME280;46846;51.528;5.076;2023-02-28T11:08:10;102589.81;;;0.45;67.61
60974;BME280;46846;51.528;5.076;2023-02-28T11:10:37;102593.63;;;0.53;63.80
60974;BME280;46846;51.528;5.076;2023-02-28T11:13:04;102585.56;;;0.47;68.26
60974;BME280;46846;51.528;5.076;2023-02-28T11:15:33;102581.56;;;0.58;60.16
60974;BME280;46846;51.528;5.076;2023-02-28T11:18:19;102585.59;;;0.48;67.05
60974;BME280;46846;51.528;5.076;2023-02-28T11:20:51;102584.19;;;0.58;61.28
60974;BME280;46846;51.528;5.076;2023-02-28T11:23:18;102582.09;;;0.48;68.75
60974;BME280;46846;51.528;5.076;2023-02-28T11:25:51;102575.91;;;0.46;68.43
60974;BME280;46846;51.528;5.076;2023-02-28T11:28:28;102574.78;;;0.39;68.93
60974;BME280;46846;51.528;5.076;2023-02-28T11:33:40;102583.16;;;0.53;65.51
60974;BME280;46846;51.528;5.076;2023-02-28T11:38:39;102565.28;;;0.67;60.72
60974;BME280;46846;51.528;5.076;2023-02-28T11:43:45;102575.78;;;0.43;69.55
60974;BME280;46846;51.528;5.076;2023-02-28T11:46:34;102571.50;;;0.45;69.28
60974;BME280;46846;51.528;5.076;2023-02-28T11:51:52;102565.19;;;0.64;63.16
60974;BME280;46846;51.528;5.076;2023-02-28T11:54:32;102554.97;;;0.72;55.74
60974;BME280;46846;51.528;5.076;2023-02-28T11:57:28;102565.22;;;0.65;66.13
60974;BME280;46846;51.528;5.076;2023-02-28T12:11:03;102551.00;;;0.83;51.58
60974;BME280;46846;51.528;5.076;2023-02-28T12:13:41;102550.19;;;0.86;56.05
60974;BME280;46846;51.528;5.076;2023-02-28T12:26:48;102534.94;;;1.00;52.42
60974;BME280;46846;51.528;5.076;2023-02-28T12:29:30;102536.66;;;0.99;56.89
60974;BME280;46846;51.528;5.076;2023-02-28T12:32:09;102532.47;;;1.04;50.13
60974;BME280;46846;51.528;5.076;2023-02-28T12:34:41;102527.28;;;1.06;48.13
60974;BME280;46846;51.528;5.076;2023-02-28T12:37:14;102537.84;;;1.09;55.52
60974;BME280;46846;51.528;5.076;2023-02-28T12:39:46;102532.50;;;1.06;56.75
60974;BME280;46846;51.528;5.076;2023-02-28T12:42:27;102522.03;;;1.06;51.50
60974;BME280;46846;51.528;5.076;2023-02-28T12:44:58;102519.28;;;1.03;60.52
60974;BME280;46846;51.528;5.076;2023-02-28T12:47:24;102522.47;;;0.92;63.33
60974;BME280;46846;51.528;5.076;2023-02-28T12:50:05;102510.34;;;0.96;55.41
60974;BME280;46846;51.528;5.076;2023-02-28T12:52:54;102515.00;;;1.05;56.12
60974;BME280;46846;51.528;5.076;2023-02-28T12:55:46;102512.63;;;1.13;51.88
60974;BME280;46846;51.528;5.076;2023-02-28T13:03:49;102501.13;;;1.09;58.91
60974;BME280;46846;51.528;5.076;2023-02-28T13:09:20;102495.91;;;1.09;59.06
60974;BME280;46846;51.528;5.076;2023-02-28T13:11:50;102493.34;;;1.11;51.89
60974;BME280;46846;51.528;5.076;2023-02-28T13:14:37;102491.72;;;1.16;57.24
60974;BME280;46846;51.528;5.076;2023-02-28T13:17:18;102496.19;;;1.18;56.54
60974;BME280;46846;51.528;5.076;2023-02-28T13:24:51;102486.81;;;1.27;57.20
60974;BME280;46846;51.528;5.076;2023-02-28T13:29:43;102475.66;;;1.34;51.88
60974;BME280;46846;51.528;5.076;2023-02-28T13:42:36;102474.66;;;1.29;52.11
60974;BME280;46846;51.528;5.076;2023-02-28T13:47:35;102478.22;;;1.31;50.23
60974;BME280;46846;51.528;5.076;2023-02-28T13:58:55;102463.22;;;1.27;62.95
60974;BME280;46846;51.528;5.076;2023-02-28T14:03:58;102466.69;;;1.26;55.97
60974;BME280;46846;51.528;5.076;2023-02-28T14:06:37;102461.25;;;1.19;60.07
60974;BME280;46846;51.528;5.076;2023-02-28T14:09:30;102464.06;;;1.26;53.64
60974;BME280;46846;51.528;5.076;2023-02-28T14:11:58;102459.13;;;1.36;48.39
60974;BME280;46846;51.528;5.076;2023-02-28T14:17:13;102459.06;;;1.33;50.30
60974;BME280;46846;51.528;5.076;2023-02-28T14:19:40;102451.25;;;1.35;55.21
60974;BME280;46846;51.528;5.076;2023-02-28T14:27:42;102455.78;;;1.41;57.16
60974;BME280;46846;51.528;5.076;2023-02-28T14:35:57;102450.84;;;1.52;47.55
60974;BME280;46846;51.528;5.076;2023-02-28T14:38:46;102446.28;;;1.44;55.98
60974;BME280;46846;51.528;5.076;2023-02-28T14:41:29;102446.53;;;1.54;53.21
60974;BME280;46846;51.528;5.076;2023-02-28T14:43:57;102442.03;;;1.49;55.64
60974;BME280;46846;51.528;5.076;2023-02-28T14:46:36;102446.47;;;1.50;55.29
60974;BME280;46846;51.528;5.076;2023-02-28T14:49:04;102445.59;;;1.52;54.24
60974;BME280;46846;51.528;5.076;2023-02-28T14:51:31;102444.66;;;1.49;59.33
60974;BME280;46846;51.528;5.076;2023-02-28T14:54:00;102443.13;;;1.56;54.00
60974;BME280;46846;51.528;5.076;2023-02-28T14:56:39;102443.13;;;1.56;54.00
60974;BME280;46846;51.528;5.076;2023-02-28T14:59:17;102440.31;;;1.50;56.24
60974;BME280;46846;51.528;5.076;2023-02-28T15:01:47;102437.56;;;1.45;58.16
60974;BME280;46846;51.528;5.076;2023-02-28T15:04:21;102430.75;;;1.52;51.58
60974;BME280;46846;51.528;5.076;2023-02-28T15:07:10;102432.66;;;1.58;49.26
60974;BME280;46846;51.528;5.076;2023-02-28T15:09:36;102435.41;;;1.62;48.46
60974;BME280;46846;51.528;5.076;2023-02-28T15:12:01;102432.88;;;1.66;51.53
60974;BME280;46846;51.528;5.076;2023-02-28T15:14:27;102430.19;;;1.64;49.38
60974;BME280;46846;51.528;5.076;2023-02-28T15:16:56;102430.88;;;1.57;57.66
60974;BME280;46846;51.528;5.076;2023-02-28T15:19:32;102446.78;;;1.63;53.60
60974;BME280;46846;51.528;5.076;2023-02-28T15:22:04;102440.34;;;1.52;60.31
60974;BME280;46846;51.528;5.076;2023-02-28T15:24:39;102432.66;;;1.58;47.92
60974;BME280;46846;51.528;5.076;2023-02-28T15:27:32;102438.78;;;1.58;57.16
60974;BME280;46846;51.528;5.076;2023-02-28T15:29:59;102443.31;;;1.64;48.16